createdAt,value
2018-03-08T00:01:14.784Z,80.97
2018-03-08T00:03:42.330Z,81.17
2018-03-08T00:06:09.784Z,81.23
2018-03-08T00:08:37.377Z,80.99
2018-03-08T00:11:04.922Z,80.94
2018-03-08T00:13:32.386Z,81.04
2018-03-08T00:15:59.942Z,80.99
2018-03-08T00:18:27.493Z,81.15
2018-03-08T00:20:54.961Z,80.78
2018-03-08T00:23:22.520Z,80.80
2018-03-08T00:25:49.989Z,80.94
2018-03-08T00:28:17.532Z,81.30
2018-03-08T00:30:45.018Z,81.32
2018-03-08T00:33:12.544Z,81.49
2018-03-08T00:35:40.043Z,80.99
2018-03-08T00:38:07.553Z,81.16
2018-03-08T00:40:35.112Z,81.18
2018-03-08T00:43:02.555Z,80.76
2018-03-08T00:45:30.013Z,81.05
2018-03-08T00:47:57.457Z,81.30
2018-03-08T00:50:24.922Z,80.98
2018-03-08T00:52:53.266Z,81.12
2018-03-08T00:55:20.724Z,80.64
2018-03-08T00:57:48.168Z,80.53
2018-03-08T01:00:15.645Z,80.71
2018-03-08T01:02:43.159Z,80.77
2018-03-08T01:05:10.709Z,80.71
2018-03-08T01:07:38.169Z,80.61
2018-03-08T01:10:05.645Z,80.05
2018-03-08T01:12:33.114Z,80.63
2018-03-08T01:15:01.570Z,81.15
2018-03-08T01:17:29.050Z,81.60
2018-03-08T01:19:56.525Z,81.61
2018-03-08T01:22:23.968Z,81.12
2018-03-08T01:24:51.546Z,81.03
2018-03-08T01:27:18.996Z,81.09
2018-03-08T01:29:46.457Z,81.19
2018-03-08T01:32:13.965Z,82.01
2018-03-08T01:34:41.420Z,81.97
2018-03-08T01:37:08.873Z,81.53
2018-03-08T01:39:36.356Z,81.64
2018-03-08T01:42:03.894Z,81.51
2018-03-08T01:44:31.447Z,81.63
2018-03-08T01:46:58.903Z,81.46
2018-03-08T01:49:26.365Z,81.31
2018-03-08T01:54:48.003Z,81.31
2018-03-08T01:57:15.452Z,81.44
2018-03-08T01:59:42.925Z,81.52
2018-03-08T02:02:10.509Z,81.16
2018-03-08T02:04:37.972Z,81.01
2018-03-08T02:07:05.421Z,80.84
2018-03-08T02:09:33.074Z,80.88
2018-03-08T02:12:00.729Z,80.95
2018-03-08T02:14:28.274Z,80.80
2018-03-08T02:16:55.825Z,81.12
2018-03-08T02:19:23.273Z,81.33
2018-03-08T02:21:50.738Z,81.19
2018-03-08T02:24:18.180Z,81.57
2018-03-08T02:26:45.658Z,81.35
2018-03-08T02:29:13.114Z,81.04
2018-03-08T02:31:40.683Z,81.08
2018-03-08T02:34:08.237Z,80.72
2018-03-08T02:36:36.718Z,80.71
2018-03-08T02:39:04.176Z,81.17
2018-03-08T02:41:31.643Z,81.47
2018-03-08T02:43:59.196Z,81.26
2018-03-08T02:46:26.679Z,80.80
2018-03-08T02:48:54.205Z,80.89
2018-03-08T02:51:21.671Z,81.51
2018-03-08T02:53:49.131Z,81.93
2018-03-08T02:56:16.595Z,82.02
2018-03-08T02:58:44.051Z,82.40
2018-03-08T03:01:11.529Z,82.17
2018-03-08T03:03:38.982Z,82.13
2018-03-08T03:06:06.454Z,81.56
2018-03-08T03:08:33.906Z,82.00
2018-03-08T03:11:01.373Z,82.12
2018-03-08T03:13:28.886Z,81.88
2018-03-08T03:15:56.353Z,82.04
2018-03-08T03:18:23.889Z,82.27
2018-03-08T03:20:51.348Z,81.77
2018-03-08T03:23:18.806Z,81.57
2018-03-08T03:25:46.281Z,81.22
2018-03-08T03:28:13.818Z,80.93
2018-03-08T03:30:41.295Z,81.05
2018-03-08T03:33:08.757Z,81.59
2018-03-08T03:35:36.235Z,81.81
2018-03-08T03:38:03.741Z,82.16
2018-03-08T03:40:31.206Z,82.13
2018-03-08T03:42:58.669Z,82.14
2018-03-08T03:45:26.134Z,81.82
2018-03-08T03:47:53.584Z,81.41
2018-03-08T03:50:21.053Z,81.19
2018-03-08T03:52:48.500Z,81.43
2018-03-08T03:55:15.974Z,81.29
2018-03-08T03:57:43.514Z,81.00
2018-03-08T04:00:10.985Z,81.10
2018-03-08T04:02:38.437Z,81.39
2018-03-08T04:05:05.981Z,81.23
2018-03-08T04:07:34.423Z,80.90
2018-03-08T04:10:01.889Z,81.40
2018-03-08T04:12:29.336Z,81.60
2018-03-08T04:14:56.840Z,81.89
2018-03-08T04:17:24.301Z,82.38
2018-03-08T04:19:51.757Z,82.57
2018-03-08T04:22:20.327Z,82.60
2018-03-08T04:24:47.794Z,82.42
2018-03-08T04:27:15.249Z,81.83
2018-03-08T04:29:43.052Z,82.18
2018-03-08T04:32:10.566Z,82.76
2018-03-08T04:34:38.929Z,82.66
2018-03-08T04:37:07.386Z,82.67
2018-03-08T04:39:34.877Z,82.35
2018-03-08T04:42:02.333Z,82.27
2018-03-08T04:44:29.889Z,82.24
2018-03-08T04:46:57.350Z,82.41
2018-03-08T04:49:24.822Z,83.22
2018-03-08T04:51:52.284Z,82.80
2018-03-08T04:54:19.867Z,82.67
2018-03-08T04:56:47.281Z,82.90
2018-03-08T04:59:14.756Z,82.43
2018-03-08T05:01:42.289Z,82.17
2018-03-08T05:04:09.753Z,82.21
2018-03-08T05:06:38.234Z,82.36
2018-03-08T05:09:05.702Z,82.29
2018-03-08T05:11:33.153Z,81.72
2018-03-08T05:14:00.621Z,81.84
2018-03-08T05:16:28.095Z,82.00
2018-03-08T05:18:55.565Z,81.87
2018-03-08T05:21:23.027Z,82.19
2018-03-08T05:23:50.502Z,82.12
2018-03-08T05:26:18.914Z,82.22
2018-03-08T05:28:46.364Z,82.29
2018-03-08T05:31:13.923Z,82.63
2018-03-08T05:33:41.376Z,82.60
2018-03-08T05:36:08.841Z,82.76
2018-03-08T05:38:36.510Z,82.58
2018-03-08T05:41:04.960Z,82.31
2018-03-08T05:43:32.447Z,82.30
2018-03-08T05:45:59.923Z,81.89
2018-03-08T05:48:28.374Z,82.17
2018-03-08T05:50:55.879Z,81.60
2018-03-08T05:53:24.341Z,82.06
2018-03-08T05:55:51.872Z,82.08
2018-03-08T05:58:19.338Z,82.30
2018-03-08T06:00:47.853Z,83.35
2018-03-08T06:03:15.293Z,83.12
2018-03-08T06:05:42.753Z,83.33
2018-03-08T06:08:11.185Z,83.49
2018-03-08T06:10:38.640Z,83.35
2018-03-08T06:13:06.105Z,82.91
2018-03-08T06:15:33.640Z,82.77
2018-03-08T06:18:01.122Z,82.86
2018-03-08T06:20:28.580Z,82.93
2018-03-08T06:22:56.140Z,82.41
2018-03-08T06:25:23.596Z,82.85
2018-03-08T06:27:51.045Z,82.60
2018-03-08T06:30:18.509Z,82.53
2018-03-08T06:32:46.074Z,82.21
2018-03-08T06:35:13.546Z,82.20
2018-03-08T06:37:41.045Z,81.76
2018-03-08T06:40:08.553Z,81.67
2018-03-08T06:42:36.008Z,81.53
2018-03-08T06:45:04.478Z,81.54
2018-03-08T06:47:32.041Z,82.06
2018-03-08T06:49:59.521Z,81.65
2018-03-08T06:52:27.064Z,81.74
2018-03-08T06:54:54.545Z,81.26
2018-03-08T06:57:22.002Z,82.00
2018-03-08T06:59:49.469Z,82.09
2018-03-08T07:02:17.021Z,82.48
2018-03-08T07:04:44.495Z,82.59
2018-03-08T07:07:12.907Z,82.78
2018-03-08T07:09:40.473Z,82.45
2018-03-08T07:12:07.956Z,82.63
2018-03-08T07:14:36.438Z,81.89
2018-03-08T07:17:03.885Z,81.67
2018-03-08T07:19:31.362Z,81.74
2018-03-08T07:21:59.801Z,81.93
2018-03-08T07:24:27.278Z,81.78
2018-03-08T07:26:54.740Z,81.63
2018-03-08T07:29:22.205Z,81.06
2018-03-08T07:31:49.653Z,80.38
2018-03-08T07:34:18.140Z,81.14
2018-03-08T07:36:45.591Z,81.21
2018-03-08T07:39:13.161Z,81.29
2018-03-08T07:41:40.713Z,81.27
2018-03-08T07:44:08.181Z,81.33
2018-03-08T07:46:35.633Z,81.32
2018-03-08T07:49:03.106Z,80.50
2018-03-08T07:51:30.568Z,80.86
2018-03-08T07:53:58.044Z,81.59
2018-03-08T07:56:25.501Z,81.62
2018-03-08T07:58:53.926Z,80.89
2018-03-08T08:01:22.389Z,80.78
2018-03-08T08:03:49.861Z,81.04
2018-03-08T08:06:29.033Z,81.28
2018-03-08T08:09:08.342Z,80.98
2018-03-08T08:11:35.797Z,81.03
2018-03-08T08:14:05.191Z,81.54
2018-03-08T08:16:32.659Z,81.69
2018-03-08T08:19:00.133Z,81.73
2018-03-08T08:21:27.582Z,81.24
2018-03-08T08:23:55.048Z,81.58
2018-03-08T08:26:23.480Z,81.72
2018-03-08T08:28:50.963Z,83.01
2018-03-08T08:31:19.406Z,83.22
2018-03-08T08:33:46.866Z,83.75
2018-03-08T08:36:16.261Z,83.10
2018-03-08T08:38:43.718Z,83.96
2018-03-08T08:41:12.141Z,84.74
2018-03-08T08:43:39.598Z,85.11
2018-03-08T08:46:07.072Z,84.98
2018-03-08T08:48:34.574Z,85.51
2018-03-08T08:51:02.073Z,85.83
2018-03-08T08:53:29.532Z,85.25
2018-03-08T08:55:57.001Z,85.08
2018-03-08T08:58:24.458Z,85.03
2018-03-08T09:00:51.926Z,85.95
2018-03-08T09:03:19.373Z,86.26
2018-03-08T09:05:46.842Z,86.05
2018-03-08T09:08:14.473Z,85.67
2018-03-08T09:10:41.945Z,86.23
2018-03-08T09:13:09.403Z,86.30
2018-03-08T09:15:36.868Z,85.90
2018-03-08T09:18:05.237Z,85.15
2018-03-08T09:20:32.792Z,85.18
2018-03-08T09:23:00.242Z,84.54
2018-03-08T09:25:27.710Z,84.92
2018-03-08T09:27:55.157Z,84.44
2018-03-08T09:30:22.634Z,83.82
2018-03-08T09:32:50.089Z,84.26
2018-03-08T09:35:17.565Z,84.42
2018-03-08T09:37:45.087Z,84.35
2018-03-08T09:40:12.554Z,84.06
2018-03-08T09:42:41.014Z,83.89
2018-03-08T09:45:08.492Z,83.85
2018-03-08T09:47:35.946Z,82.25
2018-03-08T09:50:03.462Z,81.07
2018-03-08T09:52:30.912Z,81.23
2018-03-08T09:54:58.417Z,80.47
2018-03-08T09:57:25.880Z,78.76
2018-03-08T09:59:53.413Z,79.74
2018-03-08T10:02:20.970Z,79.29
2018-03-08T10:04:48.431Z,79.80
2018-03-08T10:07:15.884Z,80.60
2018-03-08T10:09:43.376Z,81.35
2018-03-08T10:12:10.825Z,81.67
2018-03-08T10:14:38.313Z,81.70
2018-03-08T10:17:05.832Z,81.35
2018-03-08T10:19:33.340Z,81.58
2018-03-08T10:22:00.791Z,82.18
2018-03-08T10:24:28.260Z,81.72
2018-03-08T10:26:55.701Z,81.29
2018-03-08T10:29:23.180Z,81.81
2018-03-08T10:31:50.668Z,82.32
2018-03-08T10:34:18.137Z,82.90
2018-03-08T10:36:45.698Z,82.58
2018-03-08T10:44:08.205Z,82.50
2018-03-08T10:46:35.654Z,82.07
2018-03-08T10:49:03.134Z,82.33
2018-03-08T10:51:30.591Z,81.61
2018-03-08T10:54:00.081Z,81.61
2018-03-08T10:56:27.581Z,81.73
2018-03-08T10:58:55.028Z,81.24
2018-03-08T11:01:26.389Z,80.76
2018-03-08T11:03:55.588Z,81.86
2018-03-08T11:06:34.797Z,81.47
2018-03-08T11:09:02.261Z,81.85
2018-03-08T11:11:29.729Z,82.07
2018-03-08T11:13:57.254Z,82.26
2018-03-08T11:16:24.742Z,81.86
2018-03-08T11:18:54.219Z,81.87
2018-03-08T11:21:21.722Z,81.56
2018-03-08T11:23:51.166Z,82.66
2018-03-08T11:26:18.733Z,83.29
2018-03-08T11:28:49.971Z,83.07
2018-03-08T11:31:17.438Z,83.00
2018-03-08T11:33:44.931Z,83.19
2018-03-08T11:36:12.444Z,82.56
2018-03-08T11:38:39.898Z,81.75
2018-03-08T11:41:07.365Z,82.59
2018-03-08T11:43:34.829Z,83.13
2018-03-08T11:46:03.290Z,83.69
2018-03-08T11:48:30.798Z,83.41
2018-03-08T11:50:58.277Z,83.16
2018-03-08T11:53:26.675Z,82.95
2018-03-08T11:55:54.190Z,82.82
2018-03-08T11:58:21.710Z,81.89
2018-03-08T12:00:49.178Z,82.34
2018-03-08T12:03:17.627Z,81.96
2018-03-08T12:05:45.085Z,81.18
2018-03-08T12:08:12.552Z,80.69
2018-03-08T12:10:40.995Z,81.71
2018-03-08T12:13:09.393Z,81.89
2018-03-08T12:15:40.757Z,81.18
2018-03-08T12:18:08.225Z,80.56
2018-03-08T12:20:35.759Z,80.02
2018-03-08T12:23:03.288Z,79.37
2018-03-08T12:25:30.855Z,77.56
2018-03-08T12:27:58.367Z,76.06
2018-03-08T12:30:26.813Z,76.50
2018-03-08T12:32:54.283Z,75.23
2018-03-08T12:35:21.725Z,74.88
2018-03-08T12:37:49.189Z,73.17
2018-03-08T12:40:16.786Z,74.50
2018-03-08T12:42:44.289Z,73.58
2018-03-08T12:45:12.723Z,73.47
2018-03-08T12:47:40.180Z,70.50
2018-03-08T12:50:07.825Z,68.79
2018-03-08T12:52:35.375Z,70.13
2018-03-08T12:55:02.846Z,69.50
2018-03-08T12:57:30.305Z,69.22
2018-03-08T12:59:57.822Z,68.87
2018-03-08T13:02:25.319Z,68.89
2018-03-08T13:04:52.792Z,66.73
2018-03-08T13:07:21.264Z,66.34
2018-03-08T13:09:48.710Z,67.47
2018-03-08T13:12:18.145Z,68.41
2018-03-08T13:14:45.614Z,67.93
2018-03-08T13:17:13.186Z,64.05
2018-03-08T13:19:40.610Z,62.62
2018-03-08T13:22:09.046Z,65.23
2018-03-08T13:24:36.517Z,63.65
2018-03-08T13:27:05.162Z,63.96
2018-03-08T13:29:32.665Z,66.20
2018-03-08T13:32:01.126Z,65.23
2018-03-08T13:34:29.599Z,65.37
2018-03-08T13:36:58.004Z,60.13
2018-03-08T13:39:26.479Z,55.58
2018-03-08T13:41:53.942Z,55.32
2018-03-08T13:44:25.069Z,59.18
2018-03-08T13:46:53.546Z,56.25
2018-03-08T13:49:33.897Z,59.67
2018-03-08T13:52:01.389Z,59.96
2018-03-08T13:54:28.846Z,57.94
2018-03-08T13:56:58.249Z,57.68
2018-03-08T13:59:26.693Z,55.29
2018-03-08T14:01:54.189Z,51.34
2018-03-08T14:04:22.547Z,51.88
2018-03-08T14:06:51.005Z,54.93
2018-03-08T14:09:18.577Z,54.12
2018-03-08T14:11:46.136Z,53.24
2018-03-08T14:14:13.609Z,55.45
2018-03-08T14:16:41.077Z,55.41
2018-03-08T14:19:08.521Z,55.96
2018-03-08T14:21:35.994Z,56.77
2018-03-08T14:24:03.449Z,53.41
2018-03-08T14:26:30.917Z,52.10
2018-03-08T14:28:58.372Z,51.14
2018-03-08T14:31:25.856Z,47.33
2018-03-08T14:33:54.227Z,45.96
2018-03-08T14:36:21.693Z,49.67
2018-03-08T14:38:52.565Z,47.53
2018-03-08T14:41:20.038Z,43.76
2018-03-08T14:43:47.488Z,41.04
2018-03-08T14:46:14.969Z,42.89
2018-03-08T14:48:43.422Z,44.39
2018-03-08T14:51:11.086Z,44.63
2018-03-08T14:53:40.586Z,45.04
2018-03-08T14:56:08.141Z,46.07
2018-03-08T14:58:35.612Z,42.25
2018-03-08T15:01:03.090Z,38.04
2018-03-08T15:03:30.585Z,32.30
2018-03-08T15:05:58.034Z,35.42
2018-03-08T15:08:26.436Z,36.84
2018-03-08T15:10:53.893Z,37.21
2018-03-08T15:13:22.261Z,40.01
2018-03-08T15:15:49.709Z,35.45
2018-03-08T15:18:17.189Z,33.69
2018-03-08T15:20:45.645Z,32.32
2018-03-08T15:23:15.070Z,37.92
2018-03-08T15:25:43.541Z,41.11
2018-03-08T15:28:11.927Z,42.04
2018-03-08T15:30:39.390Z,48.92
2018-03-08T15:33:06.857Z,55.05
2018-03-08T15:35:34.306Z,57.27
2018-03-08T15:38:01.781Z,60.37
2018-03-08T15:40:29.244Z,61.13
2018-03-08T15:42:56.714Z,62.53
2018-03-08T15:45:25.070Z,63.42
2018-03-08T15:47:52.622Z,64.64
2018-03-08T15:50:20.117Z,65.33
2018-03-08T15:52:47.554Z,65.26
2018-03-08T15:55:15.989Z,65.35
2018-03-08T15:57:43.565Z,65.64
2018-03-08T16:00:11.015Z,65.87
2018-03-08T16:02:38.477Z,65.82
2018-03-08T16:05:05.938Z,65.95
2018-03-08T16:10:36.367Z,66.21
2018-03-08T16:13:03.966Z,66.06
2018-03-08T16:15:31.434Z,65.81
2018-03-08T16:17:58.911Z,65.92
2018-03-08T16:20:26.364Z,66.58
2018-03-08T16:22:53.840Z,65.98
2018-03-08T16:25:21.316Z,66.46
2018-03-08T16:27:48.786Z,66.58
2018-03-08T16:30:16.261Z,67.01
2018-03-08T16:32:43.803Z,67.09
2018-03-08T16:35:11.320Z,67.10
2018-03-08T16:37:39.707Z,67.74
2018-03-08T16:40:07.195Z,68.14
2018-03-08T16:42:34.651Z,68.53
2018-03-08T16:45:02.118Z,69.02
2018-03-08T16:47:29.585Z,69.83
2018-03-08T16:49:57.126Z,70.09
2018-03-08T16:52:24.572Z,70.54
2018-03-08T16:54:52.120Z,71.99
2018-03-08T16:57:19.578Z,72.33
2018-03-08T16:59:47.053Z,73.95
2018-03-08T17:02:14.502Z,73.77
2018-03-08T17:04:41.969Z,74.49
2018-03-08T17:07:09.439Z,75.08
2018-03-08T17:09:37.045Z,75.07
2018-03-08T17:12:05.443Z,75.84
2018-03-08T17:14:33.863Z,75.90
2018-03-08T17:17:02.301Z,76.47
2018-03-08T17:19:29.786Z,76.90
2018-03-08T17:21:59.697Z,76.74
2018-03-08T17:24:27.214Z,77.17
2018-03-08T17:26:54.769Z,77.82
2018-03-08T17:29:22.245Z,77.83
2018-03-08T17:31:49.698Z,78.28
2018-03-08T17:34:17.169Z,78.17
2018-03-08T17:36:44.627Z,78.02
2018-03-08T17:39:12.097Z,78.46
2018-03-08T17:41:39.550Z,78.69
2018-03-08T17:44:07.022Z,79.17
2018-03-08T17:46:35.413Z,79.48
2018-03-08T17:49:02.946Z,79.17
2018-03-08T17:51:30.431Z,80.12
2018-03-08T17:53:57.912Z,80.71
2018-03-08T17:56:25.379Z,80.33
2018-03-08T17:58:53.844Z,80.87
2018-03-08T18:01:21.308Z,80.16
2018-03-08T18:03:48.768Z,80.43
2018-03-08T18:06:16.348Z,80.29
2018-03-08T18:08:43.838Z,80.97
2018-03-08T18:11:11.295Z,80.23
2018-03-08T18:13:38.768Z,80.52
2018-03-08T18:16:06.219Z,80.14
2018-03-08T18:18:33.753Z,80.15
2018-03-08T18:21:01.194Z,80.26
2018-03-08T18:23:28.666Z,80.38
2018-03-08T18:25:56.225Z,80.25
2018-03-08T18:28:23.896Z,80.14
2018-03-08T18:30:51.360Z,80.40
2018-03-08T18:33:18.838Z,80.69
2018-03-08T18:35:46.363Z,81.20
2018-03-08T18:38:13.833Z,82.16
2018-03-08T18:40:41.329Z,82.21
2018-03-08T18:43:08.789Z,82.14
2018-03-08T18:45:36.228Z,82.77
2018-03-08T18:48:03.778Z,82.94
2018-03-08T18:50:31.271Z,83.24
2018-03-08T18:52:58.814Z,83.75
2018-03-08T18:55:26.333Z,83.61
2018-03-08T18:57:53.829Z,83.69
2018-03-08T19:00:21.329Z,83.61
2018-03-08T19:02:49.180Z,83.27
2018-03-08T19:05:16.698Z,83.42
2018-03-08T19:07:44.218Z,83.32
2018-03-08T19:10:11.709Z,83.14
2018-03-08T19:12:40.113Z,82.80
2018-03-08T19:15:07.589Z,82.95
2018-03-08T19:17:35.106Z,82.36
2018-03-08T19:20:02.581Z,82.45
2018-03-08T19:22:31.970Z,82.60
2018-03-08T19:24:59.409Z,82.71
2018-03-08T19:27:26.869Z,82.76
2018-03-08T19:29:57.806Z,82.75
2018-03-08T19:32:25.310Z,82.48
2018-03-08T19:34:52.777Z,82.75
2018-03-08T19:37:20.233Z,81.98
2018-03-08T19:39:47.728Z,82.29
2018-03-08T19:42:15.206Z,82.17
2018-03-08T19:44:42.728Z,82.22
2018-03-08T19:47:10.153Z,82.35
2018-03-08T19:49:37.629Z,82.87
2018-03-08T19:52:05.093Z,82.75
2018-03-08T19:54:32.562Z,82.80
2018-03-08T19:57:00.020Z,82.47
2018-03-08T19:59:27.483Z,81.95
2018-03-08T20:01:54.939Z,82.30
2018-03-08T20:04:22.508Z,82.54
2018-03-08T20:06:49.984Z,82.86
2018-03-08T20:09:17.574Z,83.05
2018-03-08T20:11:45.989Z,83.30
2018-03-08T20:14:14.419Z,83.22
2018-03-08T20:16:41.874Z,83.34
2018-03-08T20:19:09.346Z,83.52
2018-03-08T20:21:36.829Z,83.24
2018-03-08T20:24:04.297Z,83.27
2018-03-08T20:26:31.745Z,83.35
2018-03-08T20:28:59.209Z,83.45
2018-03-08T20:31:27.598Z,83.28
2018-03-08T20:33:55.062Z,83.11
2018-03-08T20:36:22.505Z,82.85
2018-03-08T20:38:49.981Z,82.90
2018-03-08T20:41:17.426Z,83.58
2018-03-08T20:43:44.924Z,83.34
2018-03-08T20:46:12.397Z,84.30
2018-03-08T20:48:39.886Z,84.63
2018-03-08T20:51:08.266Z,84.53
2018-03-08T20:53:35.747Z,84.71
2018-03-08T20:56:03.196Z,84.62
2018-03-08T20:58:30.777Z,84.66
2018-03-08T21:00:58.250Z,84.76
2018-03-08T21:03:26.507Z,84.93
2018-03-08T21:05:54.217Z,84.66
2018-03-08T21:08:21.690Z,84.56
2018-03-08T21:10:49.136Z,85.09
2018-03-08T21:13:16.600Z,85.34
2018-03-08T21:15:44.148Z,85.90
2018-03-08T21:18:11.666Z,85.68
2018-03-08T21:20:39.130Z,85.28
2018-03-08T21:23:06.578Z,85.68
2018-03-08T21:25:34.122Z,85.67
2018-03-08T21:28:01.564Z,85.62
2018-03-08T21:30:29.027Z,85.94
2018-03-08T21:32:57.478Z,86.36
2018-03-08T21:35:24.962Z,86.36
2018-03-08T21:37:55.543Z,86.50
2018-03-08T21:40:23.002Z,86.67
2018-03-08T21:42:50.455Z,86.75
2018-03-08T21:45:17.913Z,86.87
2018-03-08T21:47:45.357Z,87.00
2018-03-08T21:50:12.817Z,87.27
2018-03-08T21:52:40.274Z,87.13
2018-03-08T21:55:07.773Z,87.38
2018-03-08T21:57:37.129Z,87.42
2018-03-08T22:00:04.600Z,87.50
2018-03-08T22:02:32.054Z,87.39
2018-03-08T22:04:59.512Z,86.92
2018-03-08T22:07:26.979Z,87.04
2018-03-08T22:09:54.450Z,86.95
2018-03-08T22:12:21.894Z,86.60
2018-03-08T22:14:49.406Z,86.47
2018-03-08T22:17:16.855Z,86.21
2018-03-08T22:19:44.796Z,85.70
2018-03-08T22:22:12.241Z,85.51
2018-03-08T22:24:39.701Z,85.24
2018-03-08T22:27:07.202Z,85.39
2018-03-08T22:29:34.668Z,85.19
2018-03-08T22:32:02.115Z,85.18
2018-03-08T22:34:29.670Z,84.89
2018-03-08T22:36:57.113Z,84.51
2018-03-08T22:39:24.574Z,84.54
2018-03-08T22:41:52.026Z,84.27
2018-03-08T22:44:19.493Z,83.50
2018-03-08T22:46:46.937Z,82.73
2018-03-08T22:49:14.504Z,82.33
2018-03-08T22:51:41.964Z,81.69
2018-03-08T22:54:09.409Z,81.59
2018-03-08T22:56:36.868Z,82.08
2018-03-08T22:59:04.308Z,81.92
2018-03-08T23:04:38.757Z,81.61
2018-03-08T23:07:06.209Z,81.68
2018-03-08T23:09:33.654Z,81.53
2018-03-08T23:12:01.121Z,81.59
2018-03-08T23:14:28.569Z,81.90
2018-03-08T23:16:56.028Z,81.65
2018-03-08T23:19:23.486Z,81.69
2018-03-08T23:21:50.956Z,81.21
2018-03-08T23:24:18.400Z,81.01
2018-03-08T23:26:45.903Z,81.15
2018-03-08T23:29:14.373Z,80.79
2018-03-08T23:31:41.838Z,80.47
2018-03-08T23:34:09.293Z,80.35
2018-03-08T23:36:36.760Z,80.53
2018-03-08T23:39:04.217Z,80.56
2018-03-08T23:41:31.689Z,81.14
2018-03-08T23:43:59.173Z,81.33
2018-03-08T23:46:26.624Z,81.07
2018-03-08T23:48:54.125Z,81.49
2018-03-08T23:51:21.585Z,81.29
2018-03-08T23:53:49.044Z,81.33
2018-03-08T23:56:16.513Z,81.11
2018-03-08T23:58:43.980Z,81.11
